sensor_id;sensor_type;location;lat;lon;timestamp;P1;durP1;ratioP1;P2;durP2;ratioP2
44862;SDS011;30597;49.628;10.850;2023-03-01T00:01:16;5.60;;;5.10;;
44862;SDS011;30597;49.628;10.850;2023-03-01T00:03:46;5.40;;;4.90;;
44862;SDS011;30597;49.628;10.850;2023-03-01T00:06:12;5.87;;;5.37;;
44862;SDS011;30597;49.628;10.850;2023-03-01T00:08:38;5.67;;;5.10;;
44862;SDS011;30597;49.628;10.850;2023-03-01T00:11:05;6.30;;;5.70;;
44862;SDS011;30597;49.628;10.850;2023-03-01T00:13:33;5.67;;;5.17;;
44862;SDS011;30597;49.628;10.850;2023-03-01T00:16:06;5.27;;;4.77;;
44862;SDS011;30597;49.628;10.850;2023-03-01T00:18:34;5.07;;;4.67;;
44862;SDS011;30597;49.628;10.850;2023-03-01T00:21:00;6.07;;;5.50;;
44862;SDS011;30597;49.628;10.850;2023-03-01T00:23:26;5.97;;;5.20;;
44862;SDS011;30597;49.628;10.850;2023-03-01T00:25:52;5.47;;;4.73;;
44862;SDS011;30597;49.628;10.850;2023-03-01T00:28:19;6.27;;;5.67;;
44862;SDS011;30597;49.628;10.850;2023-03-01T00:30:45;4.67;;;4.17;;
44862;SDS011;30597;49.628;10.850;2023-03-01T00:33:11;5.70;;;5.10;;
44862;SDS011;30597;49.628;10.850;2023-03-01T00:35:36;5.00;;;4.53;;
44862;SDS011;30597;49.628;10.850;2023-03-01T00:38:02;6.50;;;5.63;;
44862;SDS011;30597;49.628;10.850;2023-03-01T00:40:29;5.50;;;5.00;;
44862;SDS011;30597;49.628;10.850;2023-03-01T00:42:56;5.27;;;4.77;;
44862;SDS011;30597;49.628;10.850;2023-03-01T00:45:22;5.93;;;5.20;;
44862;SDS011;30597;49.628;10.850;2023-03-01T00:47:48;5.20;;;4.70;;
44862;SDS011;30597;49.628;10.850;2023-03-01T00:50:15;5.63;;;5.13;;
44862;SDS011;30597;49.628;10.850;2023-03-01T00:52:40;5.33;;;4.60;;
44862;SDS011;30597;49.628;10.850;2023-03-01T00:55:06;5.13;;;4.73;;
44862;SDS011;30597;49.628;10.850;2023-03-01T00:57:32;5.43;;;4.87;;
44862;SDS011;30597;49.628;10.850;2023-03-01T00:59:58;6.13;;;4.60;;
44862;SDS011;30597;49.628;10.850;2023-03-01T01:02:24;5.93;;;5.30;;
44862;SDS011;30597;49.628;10.850;2023-03-01T01:04:50;4.77;;;4.33;;
44862;SDS011;30597;49.628;10.850;2023-03-01T01:07:15;5.27;;;4.77;;
44862;SDS011;30597;49.628;10.850;2023-03-01T01:09:41;5.20;;;4.47;;
44862;SDS011;30597;49.628;10.850;2023-03-01T01:12:07;5.23;;;4.73;;
44862;SDS011;30597;49.628;10.850;2023-03-01T01:14:33;4.97;;;4.57;;
44862;SDS011;30597;49.628;10.850;2023-03-01T01:16:59;5.20;;;4.70;;
44862;SDS011;30597;49.628;10.850;2023-03-01T01:19:25;4.73;;;4.33;;
44862;SDS011;30597;49.628;10.850;2023-03-01T01:21:51;4.93;;;4.10;;
44862;SDS011;30597;49.628;10.850;2023-03-01T01:24:17;4.43;;;4.03;;
44862;SDS011;30597;49.628;10.850;2023-03-01T01:26:43;4.27;;;3.60;;
44862;SDS011;30597;49.628;10.850;2023-03-01T01:29:10;3.93;;;3.53;;
44862;SDS011;30597;49.628;10.850;2023-03-01T01:31:36;4.53;;;4.13;;
44862;SDS011;30597;49.628;10.850;2023-03-01T01:34:03;4.20;;;3.80;;
44862;SDS011;30597;49.628;10.850;2023-03-01T01:36:30;5.00;;;4.50;;
44862;SDS011;30597;49.628;10.850;2023-03-01T01:38:56;4.77;;;4.37;;
44862;SDS011;30597;49.628;10.850;2023-03-01T01:41:23;4.67;;;4.27;;
44862;SDS011;30597;49.628;10.850;2023-03-01T01:44:10;4.87;;;4.47;;
44862;SDS011;30597;49.628;10.850;2023-03-01T01:46:36;3.87;;;3.47;;
44862;SDS011;30597;49.628;10.850;2023-03-01T01:49:06;4.33;;;3.67;;
44862;SDS011;30597;49.628;10.850;2023-03-01T01:51:41;4.73;;;4.20;;
44862;SDS011;30597;49.628;10.850;2023-03-01T01:54:10;4.17;;;3.77;;
44862;SDS011;30597;49.628;10.850;2023-03-01T01:56:39;4.40;;;4.00;;
44862;SDS011;30597;49.628;10.850;2023-03-01T01:59:09;4.70;;;4.07;;
44862;SDS011;30597;49.628;10.850;2023-03-01T02:01:35;4.07;;;3.67;;
44862;SDS011;30597;49.628;10.850;2023-03-01T02:04:01;4.67;;;4.20;;
44862;SDS011;30597;49.628;10.850;2023-03-01T02:06:37;4.70;;;4.20;;
44862;SDS011;30597;49.628;10.850;2023-03-01T02:09:07;5.00;;;4.30;;
44862;SDS011;30597;49.628;10.850;2023-03-01T02:11:37;4.50;;;4.10;;
44862;SDS011;30597;49.628;10.850;2023-03-01T02:14:03;4.43;;;4.00;;
44862;SDS011;30597;49.628;10.850;2023-03-01T02:16:29;4.10;;;3.67;;
44862;SDS011;30597;49.628;10.850;2023-03-01T02:18:55;3.97;;;3.67;;
44862;SDS011;30597;49.628;10.850;2023-03-01T02:21:38;5.00;;;4.50;;
44862;SDS011;30597;49.628;10.850;2023-03-01T02:27:07;4.17;;;3.80;;
44862;SDS011;30597;49.628;10.850;2023-03-01T02:29:34;4.70;;;4.30;;
44862;SDS011;30597;49.628;10.850;2023-03-01T02:32:00;4.97;;;4.33;;
44862;SDS011;30597;49.628;10.850;2023-03-01T02:34:28;4.63;;;4.20;;
44862;SDS011;30597;49.628;10.850;2023-03-01T02:36:57;4.10;;;3.30;;
44862;SDS011;30597;49.628;10.850;2023-03-01T02:39:46;5.80;;;3.70;;
44862;SDS011;30597;49.628;10.850;2023-03-01T02:42:17;4.23;;;3.83;;
44862;SDS011;30597;49.628;10.850;2023-03-01T02:44:51;3.80;;;3.50;;
44862;SDS011;30597;49.628;10.850;2023-03-01T02:47:16;4.27;;;3.87;;
44862;SDS011;30597;49.628;10.850;2023-03-01T02:49:42;4.13;;;3.83;;
44862;SDS011;30597;49.628;10.850;2023-03-01T02:52:12;4.80;;;4.03;;
44862;SDS011;30597;49.628;10.850;2023-03-01T02:57:33;4.23;;;3.77;;
44862;SDS011;30597;49.628;10.850;2023-03-01T03:00:03;4.40;;;3.60;;
44862;SDS011;30597;49.628;10.850;2023-03-01T03:02:32;4.73;;;4.10;;
44862;SDS011;30597;49.628;10.850;2023-03-01T03:05:09;4.50;;;4.10;;
44862;SDS011;30597;49.628;10.850;2023-03-01T03:07:37;4.17;;;3.80;;
44862;SDS011;30597;49.628;10.850;2023-03-01T03:10:06;4.70;;;3.53;;
44862;SDS011;30597;49.628;10.850;2023-03-01T03:12:36;4.57;;;4.17;;
44862;SDS011;30597;49.628;10.850;2023-03-01T03:15:02;4.60;;;4.20;;
44862;SDS011;30597;49.628;10.850;2023-03-01T03:17:33;4.00;;;3.70;;
44862;SDS011;30597;49.628;10.850;2023-03-01T03:20:03;3.77;;;3.47;;
44862;SDS011;30597;49.628;10.850;2023-03-01T03:22:30;3.50;;;3.20;;
44862;SDS011;30597;49.628;10.850;2023-03-01T03:24:56;3.80;;;3.50;;
44862;SDS011;30597;49.628;10.850;2023-03-01T03:27:21;3.87;;;3.40;;
44862;SDS011;30597;49.628;10.850;2023-03-01T03:29:47;3.73;;;3.43;;
44862;SDS011;30597;49.628;10.850;2023-03-01T03:32:12;3.63;;;3.33;;
44862;SDS011;30597;49.628;10.850;2023-03-01T03:34:38;3.87;;;3.40;;
44862;SDS011;30597;49.628;10.850;2023-03-01T03:37:03;3.37;;;3.07;;
44862;SDS011;30597;49.628;10.850;2023-03-01T03:39:49;4.20;;;3.80;;
44862;SDS011;30597;49.628;10.850;2023-03-01T03:42:14;3.57;;;3.27;;
44862;SDS011;30597;49.628;10.850;2023-03-01T03:44:40;3.60;;;3.30;;
44862;SDS011;30597;49.628;10.850;2023-03-01T03:47:05;4.20;;;3.80;;
44862;SDS011;30597;49.628;10.850;2023-03-01T03:49:31;3.97;;;3.60;;
44862;SDS011;30597;49.628;10.850;2023-03-01T03:51:56;3.67;;;3.30;;
44862;SDS011;30597;49.628;10.850;2023-03-01T03:54:22;3.47;;;3.17;;
44862;SDS011;30597;49.628;10.850;2023-03-01T03:56:47;3.77;;;3.43;;
44862;SDS011;30597;49.628;10.850;2023-03-01T03:59:13;3.37;;;3.07;;
44862;SDS011;30597;49.628;10.850;2023-03-01T04:01:38;4.23;;;3.83;;
44862;SDS011;30597;49.628;10.850;2023-03-01T04:04:04;3.50;;;3.20;;
44862;SDS011;30597;49.628;10.850;2023-03-01T04:06:29;3.30;;;3.00;;
44862;SDS011;30597;49.628;10.850;2023-03-01T04:08:55;3.73;;;3.43;;
44862;SDS011;30597;49.628;10.850;2023-03-01T04:11:23;4.00;;;3.70;;
44862;SDS011;30597;49.628;10.850;2023-03-01T04:13:52;3.47;;;3.20;;
44862;SDS011;30597;49.628;10.850;2023-03-01T04:16:20;4.03;;;3.63;;
44862;SDS011;30597;49.628;10.850;2023-03-01T04:18:45;3.83;;;3.50;;
44862;SDS011;30597;49.628;10.850;2023-03-01T04:21:11;3.17;;;2.87;;
44862;SDS011;30597;49.628;10.850;2023-03-01T04:23:37;3.83;;;3.40;;
44862;SDS011;30597;49.628;10.850;2023-03-01T04:26:04;3.43;;;3.10;;
44862;SDS011;30597;49.628;10.850;2023-03-01T04:28:31;3.63;;;2.93;;
44862;SDS011;30597;49.628;10.850;2023-03-01T04:31:04;2.90;;;2.67;;
44862;SDS011;30597;49.628;10.850;2023-03-01T04:33:41;3.13;;;2.77;;
44862;SDS011;30597;49.628;10.850;2023-03-01T04:36:07;3.60;;;3.17;;
44862;SDS011;30597;49.628;10.850;2023-03-01T04:38:34;4.47;;;3.70;;
44862;SDS011;30597;49.628;10.850;2023-03-01T04:41:02;3.67;;;3.37;;
44862;SDS011;30597;49.628;10.850;2023-03-01T04:43:28;2.77;;;2.57;;
44862;SDS011;30597;49.628;10.850;2023-03-01T04:45:54;5.00;;;3.10;;
44862;SDS011;30597;49.628;10.850;2023-03-01T04:48:19;2.57;;;2.37;;
44862;SDS011;30597;49.628;10.850;2023-03-01T04:50:45;3.23;;;2.93;;
44862;SDS011;30597;49.628;10.850;2023-03-01T04:53:10;3.60;;;3.30;;
44862;SDS011;30597;49.628;10.850;2023-03-01T04:55:36;3.80;;;2.80;;
44862;SDS011;30597;49.628;10.850;2023-03-01T04:58:01;2.50;;;2.30;;
44862;SDS011;30597;49.628;10.850;2023-03-01T05:00:27;3.40;;;3.10;;
44862;SDS011;30597;49.628;10.850;2023-03-01T05:02:54;3.00;;;2.77;;
44862;SDS011;30597;49.628;10.850;2023-03-01T05:05:26;2.90;;;2.67;;
44862;SDS011;30597;49.628;10.850;2023-03-01T05:07:58;3.33;;;2.97;;
44862;SDS011;30597;49.628;10.850;2023-03-01T05:10:25;3.40;;;2.73;;
44862;SDS011;30597;49.628;10.850;2023-03-01T05:12:53;2.80;;;2.60;;
44862;SDS011;30597;49.628;10.850;2023-03-01T05:15:19;2.93;;;2.73;;
44862;SDS011;30597;49.628;10.850;2023-03-01T05:17:50;2.50;;;2.30;;
44862;SDS011;30597;49.628;10.850;2023-03-01T05:20:16;2.97;;;2.77;;
44862;SDS011;30597;49.628;10.850;2023-03-01T05:22:42;3.03;;;2.73;;
44862;SDS011;30597;49.628;10.850;2023-03-01T05:25:08;2.50;;;2.07;;
44862;SDS011;30597;49.628;10.850;2023-03-01T05:27:34;2.50;;;2.30;;
44862;SDS011;30597;49.628;10.850;2023-03-01T05:30:00;3.57;;;3.00;;
44862;SDS011;30597;49.628;10.850;2023-03-01T05:32:38;3.00;;;2.40;;
44862;SDS011;30597;49.628;10.850;2023-03-01T05:35:08;2.90;;;2.70;;
44862;SDS011;30597;49.628;10.850;2023-03-01T05:37:38;2.60;;;2.40;;
44862;SDS011;30597;49.628;10.850;2023-03-01T05:40:05;3.07;;;2.37;;
44862;SDS011;30597;49.628;10.850;2023-03-01T05:42:30;3.40;;;2.83;;
44862;SDS011;30597;49.628;10.850;2023-03-01T05:44:56;2.80;;;2.50;;
44862;SDS011;30597;49.628;10.850;2023-03-01T05:47:22;2.60;;;2.40;;
44862;SDS011;30597;49.628;10.850;2023-03-01T05:49:47;2.60;;;2.40;;
44862;SDS011;30597;49.628;10.850;2023-03-01T05:52:15;2.60;;;1.93;;
44862;SDS011;30597;49.628;10.850;2023-03-01T05:54:40;3.73;;;2.20;;
44862;SDS011;30597;49.628;10.850;2023-03-01T05:57:06;2.40;;;2.20;;
44862;SDS011;30597;49.628;10.850;2023-03-01T05:59:31;2.60;;;2.33;;
44862;SDS011;30597;49.628;10.850;2023-03-01T06:01:57;2.60;;;2.40;;
44862;SDS011;30597;49.628;10.850;2023-03-01T06:04:22;3.00;;;2.60;;
44862;SDS011;30597;49.628;10.850;2023-03-01T06:06:48;2.70;;;2.50;;
44862;SDS011;30597;49.628;10.850;2023-03-01T06:09:13;2.80;;;2.40;;
44862;SDS011;30597;49.628;10.850;2023-03-01T06:11:39;2.67;;;2.40;;
44862;SDS011;30597;49.628;10.850;2023-03-01T06:14:05;2.53;;;2.27;;
44862;SDS011;30597;49.628;10.850;2023-03-01T06:16:32;2.33;;;2.13;;
44862;SDS011;30597;49.628;10.850;2023-03-01T06:18:58;2.90;;;2.70;;
44862;SDS011;30597;49.628;10.850;2023-03-01T06:21:24;3.10;;;2.47;;
44862;SDS011;30597;49.628;10.850;2023-03-01T06:23:49;2.70;;;2.30;;
44862;SDS011;30597;49.628;10.850;2023-03-01T06:26:15;2.57;;;2.37;;
44862;SDS011;30597;49.628;10.850;2023-03-01T06:28:40;2.57;;;2.37;;
44862;SDS011;30597;49.628;10.850;2023-03-01T06:31:06;2.97;;;2.67;;
44862;SDS011;30597;49.628;10.850;2023-03-01T06:33:34;2.60;;;2.40;;
44862;SDS011;30597;49.628;10.850;2023-03-01T06:36:00;3.57;;;2.87;;
44862;SDS011;30597;49.628;10.850;2023-03-01T06:38:26;2.73;;;2.40;;
44862;SDS011;30597;49.628;10.850;2023-03-01T06:40:52;2.80;;;2.60;;
44862;SDS011;30597;49.628;10.850;2023-03-01T06:43:22;2.13;;;1.93;;
44862;SDS011;30597;49.628;10.850;2023-03-01T06:45:48;4.87;;;2.50;;
44862;SDS011;30597;49.628;10.850;2023-03-01T06:48:14;3.17;;;2.20;;
44862;SDS011;30597;49.628;10.850;2023-03-01T06:50:40;2.27;;;2.07;;
44862;SDS011;30597;49.628;10.850;2023-03-01T06:53:05;2.40;;;2.20;;
44862;SDS011;30597;49.628;10.850;2023-03-01T06:55:31;2.83;;;2.57;;
44862;SDS011;30597;49.628;10.850;2023-03-01T06:57:58;2.40;;;2.20;;
44862;SDS011;30597;49.628;10.850;2023-03-01T07:00:25;2.53;;;2.33;;
44862;SDS011;30597;49.628;10.850;2023-03-01T07:02:52;2.97;;;2.77;;
44862;SDS011;30597;49.628;10.850;2023-03-01T07:05:18;3.70;;;2.80;;
44862;SDS011;30597;49.628;10.850;2023-03-01T07:07:44;2.73;;;2.53;;
44862;SDS011;30597;49.628;10.850;2023-03-01T07:10:10;3.70;;;3.40;;
44862;SDS011;30597;49.628;10.850;2023-03-01T07:12:36;3.93;;;2.67;;
44862;SDS011;30597;49.628;10.850;2023-03-01T07:15:01;2.40;;;2.20;;
44862;SDS011;30597;49.628;10.850;2023-03-01T07:17:28;2.63;;;2.43;;
44862;SDS011;30597;49.628;10.850;2023-03-01T07:19:53;3.10;;;2.63;;
44862;SDS011;30597;49.628;10.850;2023-03-01T07:22:19;3.50;;;3.10;;
44862;SDS011;30597;49.628;10.850;2023-03-01T07:24:45;3.77;;;3.00;;
44862;SDS011;30597;49.628;10.850;2023-03-01T07:27:10;2.40;;;2.20;;
44862;SDS011;30597;49.628;10.850;2023-03-01T07:29:36;4.20;;;3.83;;
44862;SDS011;30597;49.628;10.850;2023-03-01T07:32:02;3.60;;;3.30;;
44862;SDS011;30597;49.628;10.850;2023-03-01T07:34:28;3.23;;;2.93;;
44862;SDS011;30597;49.628;10.850;2023-03-01T07:36:54;3.30;;;3.00;;
44862;SDS011;30597;49.628;10.850;2023-03-01T07:39:19;5.80;;;3.37;;
44862;SDS011;30597;49.628;10.850;2023-03-01T07:41:45;8.30;;;4.10;;
44862;SDS011;30597;49.628;10.850;2023-03-01T07:44:10;4.87;;;4.37;;
44862;SDS011;30597;49.628;10.850;2023-03-01T07:46:36;3.97;;;3.60;;
44862;SDS011;30597;49.628;10.850;2023-03-01T07:49:01;4.70;;;4.30;;
44862;SDS011;30597;49.628;10.850;2023-03-01T07:51:27;8.60;;;5.10;;
44862;SDS011;30597;49.628;10.850;2023-03-01T07:53:53;5.50;;;4.97;;
44862;SDS011;30597;49.628;10.850;2023-03-01T07:56:18;4.83;;;4.40;;
44862;SDS011;30597;49.628;10.850;2023-03-01T07:58:44;5.33;;;4.80;;
44862;SDS011;30597;49.628;10.850;2023-03-01T08:01:11;6.47;;;5.87;;
44862;SDS011;30597;49.628;10.850;2023-03-01T08:03:38;5.33;;;4.93;;
44862;SDS011;30597;49.628;10.850;2023-03-01T08:06:05;4.90;;;4.50;;
44862;SDS011;30597;49.628;10.850;2023-03-01T08:08:32;5.17;;;4.77;;
44862;SDS011;30597;49.628;10.850;2023-03-01T08:10:59;5.40;;;4.20;;
44862;SDS011;30597;49.628;10.850;2023-03-01T08:13:26;5.43;;;4.47;;
44862;SDS011;30597;49.628;10.850;2023-03-01T08:15:53;5.70;;;5.10;;
44862;SDS011;30597;49.628;10.850;2023-03-01T08:18:19;5.47;;;4.70;;
44862;SDS011;30597;49.628;10.850;2023-03-01T08:20:45;4.67;;;4.17;;
44862;SDS011;30597;49.628;10.850;2023-03-01T08:23:11;4.70;;;4.30;;
44862;SDS011;30597;49.628;10.850;2023-03-01T08:25:37;4.47;;;4.07;;
44862;SDS011;30597;49.628;10.850;2023-03-01T08:28:03;4.83;;;4.40;;
44862;SDS011;30597;49.628;10.850;2023-03-01T08:30:29;5.00;;;4.50;;
44862;SDS011;30597;49.628;10.850;2023-03-01T08:32:54;6.53;;;5.23;;
44862;SDS011;30597;49.628;10.850;2023-03-01T08:35:20;5.13;;;4.50;;
44862;SDS011;30597;49.628;10.850;2023-03-01T08:37:46;5.90;;;4.87;;
44862;SDS011;30597;49.628;10.850;2023-03-01T08:40:12;4.80;;;4.37;;
44862;SDS011;30597;49.628;10.850;2023-03-01T08:42:39;5.67;;;4.37;;
44862;SDS011;30597;49.628;10.850;2023-03-01T08:45:06;5.97;;;5.20;;
44862;SDS011;30597;49.628;10.850;2023-03-01T08:47:32;5.30;;;4.80;;
44862;SDS011;30597;49.628;10.850;2023-03-01T08:49:58;4.87;;;4.30;;
44862;SDS011;30597;49.628;10.850;2023-03-01T08:52:24;5.40;;;4.90;;
44862;SDS011;30597;49.628;10.850;2023-03-01T08:54:51;4.70;;;4.00;;
44862;SDS011;30597;49.628;10.850;2023-03-01T08:57:16;4.90;;;3.90;;
44862;SDS011;30597;49.628;10.850;2023-03-01T08:59:42;4.60;;;4.20;;
44862;SDS011;30597;49.628;10.850;2023-03-01T09:02:12;6.17;;;4.90;;
44862;SDS011;30597;49.628;10.850;2023-03-01T09:04:42;8.23;;;4.40;;
44862;SDS011;30597;49.628;10.850;2023-03-01T09:07:09;4.43;;;4.03;;
44862;SDS011;30597;49.628;10.850;2023-03-01T09:09:35;4.80;;;4.07;;
44862;SDS011;30597;49.628;10.850;2023-03-01T09:12:01;5.53;;;4.53;;
44862;SDS011;30597;49.628;10.850;2023-03-01T09:14:27;4.67;;;4.17;;
44862;SDS011;30597;49.628;10.850;2023-03-01T09:16:53;7.50;;;5.80;;
44862;SDS011;30597;49.628;10.850;2023-03-01T09:19:18;5.07;;;4.63;;
44862;SDS011;30597;49.628;10.850;2023-03-01T09:21:44;7.63;;;5.70;;
44862;SDS011;30597;49.628;10.850;2023-03-01T09:24:17;7.10;;;6.00;;
44862;SDS011;30597;49.628;10.850;2023-03-01T09:26:44;16.03;;;7.80;;
44862;SDS011;30597;49.628;10.850;2023-03-01T09:29:13;8.17;;;6.80;;
44862;SDS011;30597;49.628;10.850;2023-03-01T09:31:40;9.77;;;7.20;;
44862;SDS011;30597;49.628;10.850;2023-03-01T09:34:06;7.90;;;6.63;;
44862;SDS011;30597;49.628;10.850;2023-03-01T09:36:33;11.10;;;8.23;;
44862;SDS011;30597;49.628;10.850;2023-03-01T09:38:59;8.47;;;6.90;;
44862;SDS011;30597;49.628;10.850;2023-03-01T09:41:36;9.10;;;7.40;;
44862;SDS011;30597;49.628;10.850;2023-03-01T09:47:01;6.70;;;6.07;;
44862;SDS011;30597;49.628;10.850;2023-03-01T09:49:28;6.60;;;5.90;;
44862;SDS011;30597;49.628;10.850;2023-03-01T09:52:00;8.57;;;6.60;;
44862;SDS011;30597;49.628;10.850;2023-03-01T09:54:49;8.37;;;5.83;;
44862;SDS011;30597;49.628;10.850;2023-03-01T09:57:28;6.00;;;5.40;;
44862;SDS011;30597;49.628;10.850;2023-03-01T10:03:11;10.07;;;6.73;;
44862;SDS011;30597;49.628;10.850;2023-03-01T10:08:35;7.50;;;6.47;;
44862;SDS011;30597;49.628;10.850;2023-03-01T10:11:14;5.73;;;5.07;;
44862;SDS011;30597;49.628;10.850;2023-03-01T10:13:54;6.40;;;5.77;;
44862;SDS011;30597;49.628;10.850;2023-03-01T10:19:17;7.90;;;5.80;;
44862;SDS011;30597;49.628;10.850;2023-03-01T10:21:48;6.53;;;5.03;;
44862;SDS011;30597;49.628;10.850;2023-03-01T10:24:16;6.50;;;5.27;;
44862;SDS011;30597;49.628;10.850;2023-03-01T10:26:56;8.20;;;5.47;;
44862;SDS011;30597;49.628;10.850;2023-03-01T10:29:39;6.43;;;5.50;;
44862;SDS011;30597;49.628;10.850;2023-03-01T10:32:26;4.97;;;4.10;;
44862;SDS011;30597;49.628;10.850;2023-03-01T10:34:51;5.00;;;4.60;;
44862;SDS011;30597;49.628;10.850;2023-03-01T10:37:18;5.53;;;4.90;;
44862;SDS011;30597;49.628;10.850;2023-03-01T10:40:00;6.33;;;5.07;;
44862;SDS011;30597;49.628;10.850;2023-03-01T10:42:34;5.70;;;4.60;;
44862;SDS011;30597;49.628;10.850;2023-03-01T10:45:17;5.53;;;4.90;;
44862;SDS011;30597;49.628;10.850;2023-03-01T10:50:45;7.30;;;5.17;;
44862;SDS011;30597;49.628;10.850;2023-03-01T10:53:54;5.20;;;4.70;;
44862;SDS011;30597;49.628;10.850;2023-03-01T10:56:09;4.60;;;4.20;;
44862;SDS011;30597;49.628;10.850;2023-03-01T10:58:38;5.23;;;4.70;;
44862;SDS011;30597;49.628;10.850;2023-03-01T11:01:08;7.17;;;4.80;;
44862;SDS011;30597;49.628;10.850;2023-03-01T11:06:31;5.30;;;4.37;;
44862;SDS011;30597;49.628;10.850;2023-03-01T11:09:11;5.03;;;4.63;;
44862;SDS011;30597;49.628;10.850;2023-03-01T11:11:43;7.70;;;4.93;;
44862;SDS011;30597;49.628;10.850;2023-03-01T11:14:16;6.33;;;5.07;;
44862;SDS011;30597;49.628;10.850;2023-03-01T11:16:47;5.40;;;4.80;;
44862;SDS011;30597;49.628;10.850;2023-03-01T11:19:22;5.93;;;5.00;;
44862;SDS011;30597;49.628;10.850;2023-03-01T11:21:59;4.53;;;4.13;;
44862;SDS011;30597;49.628;10.850;2023-03-01T11:24:39;5.03;;;4.10;;
44862;SDS011;30597;49.628;10.850;2023-03-01T11:27:08;6.00;;;4.40;;
44862;SDS011;30597;49.628;10.850;2023-03-01T11:29:43;5.20;;;4.57;;
44862;SDS011;30597;49.628;10.850;2023-03-01T11:32:12;6.30;;;5.67;;
44862;SDS011;30597;49.628;10.850;2023-03-01T11:38:12;5.37;;;4.90;;
44862;SDS011;30597;49.628;10.850;2023-03-01T11:41:06;9.23;;;5.33;;
44862;SDS011;30597;49.628;10.850;2023-03-01T11:43:58;6.40;;;5.70;;
44862;SDS011;30597;49.628;10.850;2023-03-01T12:03:08;6.03;;;5.13;;
44862;SDS011;30597;49.628;10.850;2023-03-01T12:08:43;7.27;;;5.00;;
44862;SDS011;30597;49.628;10.850;2023-03-01T12:11:16;6.87;;;5.60;;
44862;SDS011;30597;49.628;10.850;2023-03-01T12:19:04;7.63;;;5.60;;
44862;SDS011;30597;49.628;10.850;2023-03-01T12:31:00;7.33;;;5.53;;
44862;SDS011;30597;49.628;10.850;2023-03-01T12:35:52;6.17;;;5.57;;
44862;SDS011;30597;49.628;10.850;2023-03-01T12:38:42;6.00;;;5.40;;
44862;SDS011;30597;49.628;10.850;2023-03-01T12:44:11;6.07;;;5.47;;
44862;SDS011;30597;49.628;10.850;2023-03-01T12:49:33;7.10;;;6.00;;
44862;SDS011;30597;49.628;10.850;2023-03-01T12:54:36;6.50;;;5.73;;
44862;SDS011;30597;49.628;10.850;2023-03-01T12:57:26;7.97;;;6.17;;
44862;SDS011;30597;49.628;10.850;2023-03-01T13:08:20;5.63;;;5.10;;
44862;SDS011;30597;49.628;10.850;2023-03-01T13:10:54;6.30;;;5.70;;
44862;SDS011;30597;49.628;10.850;2023-03-01T13:13:30;7.30;;;5.70;;
44862;SDS011;30597;49.628;10.850;2023-03-01T13:15:57;6.07;;;5.47;;
44862;SDS011;30597;49.628;10.850;2023-03-01T13:18:42;6.10;;;5.50;;
44862;SDS011;30597;49.628;10.850;2023-03-01T13:21:08;5.77;;;5.00;;
44862;SDS011;30597;49.628;10.850;2023-03-01T13:23:35;6.83;;;5.87;;
44862;SDS011;30597;49.628;10.850;2023-03-01T13:26:07;5.57;;;4.90;;
44862;SDS011;30597;49.628;10.850;2023-03-01T13:31:10;7.93;;;5.90;;
44862;SDS011;30597;49.628;10.850;2023-03-01T13:33:40;6.47;;;5.13;;
44862;SDS011;30597;49.628;10.850;2023-03-01T13:49:35;5.33;;;4.83;;
44862;SDS011;30597;49.628;10.850;2023-03-01T13:54:56;6.63;;;5.80;;
44862;SDS011;30597;49.628;10.850;2023-03-01T13:57:23;6.30;;;5.23;;
44862;SDS011;30597;49.628;10.850;2023-03-01T13:59:54;6.43;;;5.60;;
44862;SDS011;30597;49.628;10.850;2023-03-01T14:02:20;6.40;;;5.80;;
44862;SDS011;30597;49.628;10.850;2023-03-01T14:04:55;5.40;;;4.90;;
44862;SDS011;30597;49.628;10.850;2023-03-01T14:07:24;5.23;;;4.73;;
44862;SDS011;30597;49.628;10.850;2023-03-01T14:09:56;5.80;;;4.70;;
44862;SDS011;30597;49.628;10.850;2023-03-01T14:18:28;5.83;;;5.33;;
44862;SDS011;30597;49.628;10.850;2023-03-01T14:20:44;6.17;;;5.30;;
44862;SDS011;30597;49.628;10.850;2023-03-01T14:23:17;5.30;;;4.70;;
44862;SDS011;30597;49.628;10.850;2023-03-01T14:25:51;7.10;;;4.90;;
44862;SDS011;30597;49.628;10.850;2023-03-01T14:28:30;6.87;;;5.23;;
44862;SDS011;30597;49.628;10.850;2023-03-01T14:30:59;5.63;;;5.10;;
44862;SDS011;30597;49.628;10.850;2023-03-01T14:33:29;5.60;;;4.10;;
44862;SDS011;30597;49.628;10.850;2023-03-01T14:36:02;5.90;;;4.90;;
44862;SDS011;30597;49.628;10.850;2023-03-01T14:38:45;5.07;;;4.57;;
44862;SDS011;30597;49.628;10.850;2023-03-01T14:43:46;6.27;;;5.13;;
44862;SDS011;30597;49.628;10.850;2023-03-01T14:46:36;5.07;;;4.67;;
44862;SDS011;30597;49.628;10.850;2023-03-01T14:49:11;7.20;;;4.77;;
44862;SDS011;30597;49.628;10.850;2023-03-01T14:51:55;5.33;;;4.70;;
44862;SDS011;30597;49.628;10.850;2023-03-01T14:54:25;5.03;;;4.50;;
44862;SDS011;30597;49.628;10.850;2023-03-01T14:56:54;4.97;;;4.43;;
44862;SDS011;30597;49.628;10.850;2023-03-01T14:59:24;5.10;;;4.70;;
44862;SDS011;30597;49.628;10.850;2023-03-01T15:01:51;6.87;;;4.47;;
44862;SDS011;30597;49.628;10.850;2023-03-01T15:04:19;5.13;;;4.63;;
44862;SDS011;30597;49.628;10.850;2023-03-01T15:06:46;5.03;;;4.60;;
44862;SDS011;30597;49.628;10.850;2023-03-01T15:09:15;6.03;;;4.70;;
44862;SDS011;30597;49.628;10.850;2023-03-01T15:11:42;5.20;;;4.70;;
44862;SDS011;30597;49.628;10.850;2023-03-01T15:17:18;4.30;;;3.90;;
44862;SDS011;30597;49.628;10.850;2023-03-01T15:19:50;5.27;;;4.77;;
44862;SDS011;30597;49.628;10.850;2023-03-01T15:22:16;5.10;;;4.40;;
44862;SDS011;30597;49.628;10.850;2023-03-01T15:24:46;4.67;;;4.10;;
44862;SDS011;30597;49.628;10.850;2023-03-01T15:27:17;4.70;;;4.13;;
44862;SDS011;30597;49.628;10.850;2023-03-01T15:29:48;5.20;;;4.70;;
44862;SDS011;30597;49.628;10.850;2023-03-01T15:32:28;4.40;;;4.00;;
44862;SDS011;30597;49.628;10.850;2023-03-01T15:34:54;5.20;;;4.70;;
44862;SDS011;30597;49.628;10.850;2023-03-01T15:37:40;5.23;;;4.73;;
44862;SDS011;30597;49.628;10.850;2023-03-01T15:42:58;4.57;;;4.17;;
44862;SDS011;30597;49.628;10.850;2023-03-01T15:45:25;4.87;;;4.37;;
44862;SDS011;30597;49.628;10.850;2023-03-01T15:47:56;5.00;;;4.43;;
44862;SDS011;30597;49.628;10.850;2023-03-01T15:50:27;4.80;;;4.40;;
44862;SDS011;30597;49.628;10.850;2023-03-01T15:52:55;5.67;;;4.27;;
44862;SDS011;30597;49.628;10.850;2023-03-01T15:55:26;4.37;;;3.97;;
44862;SDS011;30597;49.628;10.850;2023-03-01T15:58:00;5.47;;;4.27;;
44862;SDS011;30597;49.628;10.850;2023-03-01T16:00:29;4.57;;;3.97;;
44862;SDS011;30597;49.628;10.850;2023-03-01T16:02:55;4.70;;;4.30;;
44862;SDS011;30597;49.628;10.850;2023-03-01T16:05:22;3.90;;;3.60;;
44862;SDS011;30597;49.628;10.850;2023-03-01T16:07:50;4.67;;;4.23;;
44862;SDS011;30597;49.628;10.850;2023-03-01T16:10:16;4.10;;;3.70;;
44862;SDS011;30597;49.628;10.850;2023-03-01T16:12:42;4.47;;;4.07;;
44862;SDS011;30597;49.628;10.850;2023-03-01T16:15:13;4.50;;;4.07;;
44862;SDS011;30597;49.628;10.850;2023-03-01T16:17:42;4.10;;;3.70;;
44862;SDS011;30597;49.628;10.850;2023-03-01T16:20:07;4.80;;;4.30;;
44862;SDS011;30597;49.628;10.850;2023-03-01T16:22:34;4.57;;;4.17;;
44862;SDS011;30597;49.628;10.850;2023-03-01T16:24:59;4.57;;;4.10;;
44862;SDS011;30597;49.628;10.850;2023-03-01T16:27:25;5.30;;;3.80;;
44862;SDS011;30597;49.628;10.850;2023-03-01T16:29:50;4.97;;;4.57;;
44862;SDS011;30597;49.628;10.850;2023-03-01T16:32:16;4.43;;;3.90;;
44862;SDS011;30597;49.628;10.850;2023-03-01T16:34:41;5.20;;;4.70;;
44862;SDS011;30597;49.628;10.850;2023-03-01T16:37:07;4.30;;;3.90;;